Time;durP1;ratioP1;P1;durP2;ratioP2;P2;SDS_P1;SDS_P2;PMS_P1;PMS_P2;Temp;Humidity;BMP_temperature;BMP_pressure;BME280_temperature;BME280_humidity;BME280_pressure;Samples;Min_cycle;Max_cycle;Signal;HPM_P1;HPM_P2
2021/09/07 00:02:12;;;;;;;8.40;6.60;;;;;;;;;;5097921;28;20186;-82
2021/09/07 00:04:38;;;;;;;8.25;6.65;;;;;;;;;;5102656;28;20533;-82
2021/09/07 00:07:04;;;;;;;7.23;5.97;;;;;;;;;;5101002;28;20179;-82
2021/09/07 00:09:30;;;;;;;6.80;6.10;;;;;;;;;;5101457;28;20840;-82
2021/09/07 00:11:56;;;;;;;9.52;6.88;;;;;;;;;;5097630;28;20448;-83
2021/09/07 00:14:22;;;;;;;9.82;7.35;;;;;;;;;;5114224;28;20591;-82
2021/09/07 00:16:48;;;;;;;6.85;6.15;;;;;;;;;;5100029;28;20184;-82
2021/09/07 00:19:14;;;;;;;7.53;6.30;;;;;;;;;;5115806;28;20168;-82
2021/09/07 00:21:40;;;;;;;9.27;7.07;;;;;;;;;;5102234;28;20808;-82
2021/09/07 00:24:06;;;;;;;7.70;6.80;;;;;;;;;;5100162;28;20199;-82
2021/09/07 00:26:32;;;;;;;7.70;6.90;;;;;;;;;;5099102;28;20524;-82
2021/09/07 00:28:58;;;;;;;10.27;6.23;;;;;;;;;;5103609;28;20199;-82
2021/09/07 00:31:24;;;;;;;6.40;5.80;;;;;;;;;;5099584;28;20474;-81
2021/09/07 00:33:50;;;;;;;7.90;7.10;;;;;;;;;;5101169;28;20277;-82
2021/09/07 00:36:16;;;;;;;8.27;6.63;;;;;;;;;;5100441;28;20443;-82
2021/09/07 00:38:42;;;;;;;6.90;6.20;;;;;;;;;;5098801;28;20471;-82
2021/09/07 00:41:08;;;;;;;8.00;7.20;;;;;;;;;;5118727;28;21006;-82
2021/09/07 00:43:34;;;;;;;7.63;6.93;;;;;;;;;;5096575;28;20471;-82
2021/09/07 00:46:00;;;;;;;6.47;5.87;;;;;;;;;;5115391;28;20437;-83
2021/09/07 00:48:26;;;;;;;6.93;6.23;;;;;;;;;;5097416;28;20444;-83
2021/09/07 00:50:52;;;;;;;7.18;6.30;;;;;;;;;;5118254;28;20435;-83
2021/09/07 00:53:18;;;;;;;7.20;6.50;;;;;;;;;;5106866;28;20214;-83
2021/09/07 00:55:46;;;;;;;7.18;5.88;;;;;;;;;;5104640;28;20963;-83
2021/09/07 00:58:13;;;;;;;8.38;6.97;;;;;;;;;;5107188;28;20228;-83
2021/09/07 01:00:39;;;;;;;7.25;6.65;;;;;;;;;;5100669;28;20628;-83
2021/09/07 01:03:05;;;;;;;7.07;6.37;;;;;;;;;;5122617;28;20254;-82
2021/09/07 01:05:31;;;;;;;7.28;6.03;;;;;;;;;;5107436;28;20470;-82
2021/09/07 01:07:57;;;;;;;8.57;7.07;;;;;;;;;;5106955;28;20190;-82
2021/09/07 01:10:24;;;;;;;7.70;6.15;;;;;;;;;;5106440;28;20736;-82
2021/09/07 01:12:50;;;;;;;10.05;6.57;;;;;;;;;;5122621;28;20210;-83
2021/09/07 01:15:15;;;;;;;7.22;6.53;;;;;;;;;;5108085;28;20171;-83
2021/09/07 01:17:42;;;;;;;8.70;6.47;;;;;;;;;;5116015;28;20558;-82
2021/09/07 01:20:09;;;;;;;7.47;5.90;;;;;;;;;;5120086;28;20531;-83
2021/09/07 01:22:35;;;;;;;7.53;6.72;;;;;;;;;;5105397;28;20187;-83
2021/09/07 01:25:01;;;;;;;7.37;6.00;;;;;;;;;;5101079;28;20186;-83
2021/09/07 01:27:27;;;;;;;6.83;6.23;;;;;;;;;;5100214;28;20779;-82
2021/09/07 01:29:53;;;;;;;7.07;6.27;;;;;;;;;;5101973;28;20420;-82
2021/09/07 01:32:19;;;;;;;7.03;6.33;;;;;;;;;;5100270;28;20470;-83
2021/09/07 01:34:45;;;;;;;9.48;6.22;;;;;;;;;;5119269;28;20429;-82
2021/09/07 01:37:11;;;;;;;7.20;6.10;;;;;;;;;;5121100;28;20318;-82
2021/09/07 01:39:37;;;;;;;8.20;6.87;;;;;;;;;;5105611;28;20181;-83
2021/09/07 01:42:03;;;;;;;7.70;6.38;;;;;;;;;;5099965;28;20492;-83
2021/09/07 01:44:31;;;;;;;10.00;6.30;;;;;;;;;;5096090;28;20710;-83
2021/09/07 01:46:57;;;;;;;7.03;6.32;;;;;;;;;;5116265;28;20194;-83
2021/09/07 01:49:23;;;;;;;6.43;5.83;;;;;;;;;;5106190;28;20183;-82
2021/09/07 01:51:49;;;;;;;6.53;5.93;;;;;;;;;;5105713;28;20437;-83
2021/09/07 01:54:16;;;;;;;7.68;6.40;;;;;;;;;;5121696;28;20489;-83
2021/09/07 01:56:42;;;;;;;6.68;6.03;;;;;;;;;;5100355;28;20208;-83
2021/09/07 01:59:09;;;;;;;6.70;6.00;;;;;;;;;;5106467;28;20179;-83
2021/09/07 02:01:35;;;;;;;8.52;6.15;;;;;;;;;;5118962;28;20180;-83
2021/09/07 02:04:01;;;;;;;7.57;6.60;;;;;;;;;;5104035;28;20175;-83
2021/09/07 02:06:28;;;;;;;7.88;6.65;;;;;;;;;;5116753;28;20175;-83
2021/09/07 02:08:54;;;;;;;12.38;6.53;;;;;;;;;;5124848;28;20167;-82
2021/09/07 02:11:20;;;;;;;6.80;6.10;;;;;;;;;;5105371;28;20194;-83
2021/09/07 02:13:46;;;;;;;7.03;6.03;;;;;;;;;;5117595;28;20465;-83
2021/09/07 02:16:12;;;;;;;7.93;6.72;;;;;;;;;;5101037;28;20183;-83
2021/09/07 02:18:38;;;;;;;8.77;6.87;;;;;;;;;;5103096;28;20519;-83
2021/09/07 02:21:04;;;;;;;9.13;6.20;;;;;;;;;;5117794;28;20423;-83
2021/09/07 02:23:29;;;;;;;8.73;6.70;;;;;;;;;;5106480;28;20432;-83
2021/09/07 02:25:55;;;;;;;7.57;6.77;;;;;;;;;;5100116;28;20436;-83
2021/09/07 02:28:21;;;;;;;11.83;6.77;;;;;;;;;;5120713;28;21026;-82
2021/09/07 02:30:47;;;;;;;7.07;6.38;;;;;;;;;;5098264;28;20526;-82
2021/09/07 02:33:13;;;;;;;6.20;5.70;;;;;;;;;;5096552;28;20225;-82
2021/09/07 02:35:39;;;;;;;7.93;6.70;;;;;;;;;;5106282;28;20172;-83
2021/09/07 02:38:05;;;;;;;6.87;6.17;;;;;;;;;;5099305;28;20734;-82
2021/09/07 02:40:31;;;;;;;10.15;7.38;;;;;;;;;;5104223;28;20432;-82
2021/09/07 02:42:58;;;;;;;6.30;5.70;;;;;;;;;;5099667;28;20186;-82
2021/09/07 02:45:24;;;;;;;7.95;5.90;;;;;;;;;;5102657;28;20630;-83
2021/09/07 02:47:51;;;;;;;7.97;6.40;;;;;;;;;;5101010;28;20195;-83
2021/09/07 02:50:17;;;;;;;6.95;6.28;;;;;;;;;;5116210;28;20437;-83
2021/09/07 02:52:43;;;;;;;8.73;6.30;;;;;;;;;;5099825;28;20210;-82
2021/09/07 02:55:10;;;;;;;6.90;6.20;;;;;;;;;;5097117;28;20178;-83
2021/09/07 02:57:36;;;;;;;6.60;6.00;;;;;;;;;;5121165;28;20228;-83
2021/09/07 03:00:04;;;;;;;6.10;5.50;;;;;;;;;;5099126;28;20175;-83
2021/09/07 03:02:30;;;;;;;7.22;5.95;;;;;;;;;;5100107;28;20186;-83
2021/09/07 03:04:56;;;;;;;8.53;6.60;;;;;;;;;;5100581;28;20206;-83
2021/09/07 03:07:22;;;;;;;7.30;6.05;;;;;;;;;;5103353;28;20468;-83
2021/09/07 03:09:48;;;;;;;7.60;6.70;;;;;;;;;;5098138;28;20204;-83
2021/09/07 03:12:14;;;;;;;8.50;6.90;;;;;;;;;;5115009;28;20203;-83
2021/09/07 03:14:40;;;;;;;8.00;6.80;;;;;;;;;;5104020;28;20486;-83
2021/09/07 03:17:06;;;;;;;7.07;6.00;;;;;;;;;;5104789;28;20886;-83
2021/09/07 03:19:32;;;;;;;10.35;7.38;;;;;;;;;;5100738;28;20487;-83
2021/09/07 03:21:58;;;;;;;7.57;5.97;;;;;;;;;;5103460;28;20208;-83
2021/09/07 03:24:24;;;;;;;7.27;5.90;;;;;;;;;;5096401;28;20412;-83
2021/09/07 03:26:49;;;;;;;7.23;6.33;;;;;;;;;;5105181;28;20424;-83
2021/09/07 03:29:15;;;;;;;7.60;6.90;;;;;;;;;;5119835;28;20433;-83
2021/09/07 03:31:41;;;;;;;6.17;5.57;;;;;;;;;;5102179;28;20494;-83
2021/09/07 03:34:07;;;;;;;7.20;6.18;;;;;;;;;;5100359;28;20445;-83
2021/09/07 03:36:35;;;;;;;7.20;5.90;;;;;;;;;;5097251;28;20191;-83
2021/09/07 03:39:01;;;;;;;7.10;6.40;;;;;;;;;;5116286;28;20196;-82
2021/09/07 03:41:27;;;;;;;8.63;7.00;;;;;;;;;;5098655;28;20648;-82
2021/09/07 03:43:54;;;;;;;9.47;6.80;;;;;;;;;;5104605;28;20203;-83
2021/09/07 03:46:20;;;;;;;7.68;6.85;;;;;;;;;;5100848;28;20513;-82
2021/09/07 03:48:46;;;;;;;7.40;6.70;;;;;;;;;;5103081;28;20210;-83
2021/09/07 03:51:12;;;;;;;6.57;5.95;;;;;;;;;;5098443;28;20409;-83
2021/09/07 03:53:38;;;;;;;7.53;6.78;;;;;;;;;;5098738;28;20199;-82
2021/09/07 03:56:04;;;;;;;10.50;7.22;;;;;;;;;;5104750;28;20851;-83
2021/09/07 03:58:30;;;;;;;7.20;6.50;;;;;;;;;;5119453;28;20194;-83
2021/09/07 04:00:56;;;;;;;8.07;7.20;;;;;;;;;;5098811;28;20231;-83
2021/09/07 04:03:22;;;;;;;7.30;6.60;;;;;;;;;;5119461;28;20175;-82
2021/09/07 04:05:49;;;;;;;7.60;6.63;;;;;;;;;;5116647;28;20182;-83
2021/09/07 04:08:15;;;;;;;7.60;6.88;;;;;;;;;;5098656;28;20222;-83
2021/09/07 04:10:42;;;;;;;6.75;6.05;;;;;;;;;;5102145;28;20258;-83
2021/09/07 04:13:08;;;;;;;9.20;6.25;;;;;;;;;;5100841;28;20199;-83
2021/09/07 04:15:34;;;;;;;7.10;6.50;;;;;;;;;;5097300;28;20228;-83
2021/09/07 04:18:00;;;;;;;9.45;8.55;;;;;;;;;;5118614;28;20172;-83
2021/09/07 04:20:26;;;;;;;10.13;6.80;;;;;;;;;;5104745;28;20736;-82
2021/09/07 04:22:52;;;;;;;7.10;6.40;;;;;;;;;;5104094;28;20444;-82
2021/09/07 04:25:18;;;;;;;8.35;7.32;;;;;;;;;;5116330;28;20218;-82
2021/09/07 04:27:44;;;;;;;7.15;6.45;;;;;;;;;;5105866;28;20195;-82
2021/09/07 04:30:11;;;;;;;7.78;6.25;;;;;;;;;;5105842;28;20181;-82
2021/09/07 04:32:37;;;;;;;7.90;7.10;;;;;;;;;;5107128;28;20294;-82
2021/09/07 04:35:04;;;;;;;11.52;7.35;;;;;;;;;;5120559;28;20198;-82
2021/09/07 04:37:30;;;;;;;8.00;7.13;;;;;;;;;;5105399;28;20672;-82
2021/09/07 04:39:56;;;;;;;9.15;6.82;;;;;;;;;;5106805;28;25232;-82
2021/09/07 04:42:22;;;;;;;9.67;7.20;;;;;;;;;;5104528;28;20246;-81
2021/09/07 04:44:48;;;;;;;8.17;7.47;;;;;;;;;;5120025;28;20423;-82
2021/09/07 04:47:14;;;;;;;9.45;7.47;;;;;;;;;;5121122;28;20499;-82
2021/09/07 04:49:40;;;;;;;9.98;7.95;;;;;;;;;;5105798;28;20250;-82
2021/09/07 04:52:06;;;;;;;8.10;7.30;;;;;;;;;;5102866;28;20252;-82
2021/09/07 04:54:32;;;;;;;9.20;7.40;;;;;;;;;;5104769;28;20197;-82
2021/09/07 04:57:00;;;;;;;8.60;6.18;;;;;;;;;;5098270;28;20219;-82
2021/09/07 04:59:26;;;;;;;11.27;9.30;;;;;;;;;;5107793;28;20175;-82
2021/09/07 05:01:52;;;;;;;10.68;8.32;;;;;;;;;;5119522;28;20190;-82
2021/09/07 05:04:18;;;;;;;9.17;8.23;;;;;;;;;;5105562;28;20202;-82
2021/09/07 05:06:44;;;;;;;8.60;7.53;;;;;;;;;;5101040;28;20429;-83
2021/09/07 05:09:10;;;;;;;8.55;7.53;;;;;;;;;;5119528;28;20436;-81
2021/09/07 05:11:36;;;;;;;10.40;7.57;;;;;;;;;;5108375;28;20179;-83
2021/09/07 05:14:02;;;;;;;8.15;7.35;;;;;;;;;;5101426;28;20460;-82
2021/09/07 05:16:31;;;;;;;7.65;6.70;;;;;;;;;;5104473;28;20223;-82
2021/09/07 05:18:57;;;;;;;9.25;7.28;;;;;;;;;;5123306;28;20201;-82
2021/09/07 05:21:23;;;;;;;8.40;7.50;;;;;;;;;;5105382;28;20221;-82
2021/09/07 05:23:49;;;;;;;7.03;6.43;;;;;;;;;;5093900;28;20932;-82
2021/09/07 05:26:15;;;;;;;7.90;6.85;;;;;;;;;;5115830;28;20444;-82
2021/09/07 05:28:41;;;;;;;8.17;7.37;;;;;;;;;;5103779;28;20179;-81
2021/09/07 05:31:07;;;;;;;8.55;7.60;;;;;;;;;;5088066;28;20463;-82
2021/09/07 05:33:32;;;;;;;7.60;6.23;;;;;;;;;;5099758;28;20195;-82
2021/09/07 05:35:59;;;;;;;8.13;7.33;;;;;;;;;;5101312;28;20424;-82
2021/09/07 05:38:24;;;;;;;8.15;7.30;;;;;;;;;;5096729;28;20438;-83
2021/09/07 05:40:51;;;;;;;7.50;6.80;;;;;;;;;;5101526;28;20191;-82
2021/09/07 05:43:17;;;;;;;9.05;6.72;;;;;;;;;;5089811;28;20425;-82
2021/09/07 05:45:43;;;;;;;8.20;7.30;;;;;;;;;;5097770;28;20196;-82
2021/09/07 05:48:09;;;;;;;9.20;7.53;;;;;;;;;;5104255;28;20188;-82
2021/09/07 05:50:35;;;;;;;8.90;6.90;;;;;;;;;;5102984;28;20178;-81
2021/09/07 05:53:01;;;;;;;9.70;6.80;;;;;;;;;;5098390;28;20534;-82
2021/09/07 05:55:27;;;;;;;8.50;7.05;;;;;;;;;;5098215;28;20185;-82
2021/09/07 05:57:55;;;;;;;9.30;7.35;;;;;;;;;;5098448;28;20189;-81
2021/09/07 06:00:21;;;;;;;8.32;7.43;;;;;;;;;;5100262;28;20170;-82
2021/09/07 06:02:47;;;;;;;9.30;7.25;;;;;;;;;;5101245;28;20276;-82
2021/09/07 06:05:13;;;;;;;10.77;6.80;;;;;;;;;;5096262;28;20184;-82
2021/09/07 06:07:39;;;;;;;10.45;9.30;;;;;;;;;;5102003;28;20447;-82
2021/09/07 06:10:06;;;;;;;9.80;7.25;;;;;;;;;;5089038;28;20191;-82
2021/09/07 06:12:32;;;;;;;8.63;6.88;;;;;;;;;;5093975;28;20208;-82
2021/09/07 06:14:58;;;;;;;11.70;7.88;;;;;;;;;;5097915;28;20203;-82
2021/09/07 06:17:24;;;;;;;9.52;8.63;;;;;;;;;;5101696;28;20188;-82
2021/09/07 06:19:50;;;;;;;9.77;7.90;;;;;;;;;;5096796;28;20251;-82
2021/09/07 06:22:16;;;;;;;9.15;7.30;;;;;;;;;;5097662;28;20188;-81
2021/09/07 06:24:42;;;;;;;9.70;8.10;;;;;;;;;;5099175;28;20185;-82
2021/09/07 06:27:08;;;;;;;10.73;8.35;;;;;;;;;;5102181;28;20527;-82
2021/09/07 06:29:34;;;;;;;8.87;7.37;;;;;;;;;;5101354;28;20203;-82
2021/09/07 06:32:00;;;;;;;9.23;8.03;;;;;;;;;;5107860;28;20590;-82
2021/09/07 06:34:27;;;;;;;10.55;8.07;;;;;;;;;;5100598;28;20438;-82
2021/09/07 06:36:53;;;;;;;9.77;7.88;;;;;;;;;;5120594;28;20171;-82
2021/09/07 06:39:19;;;;;;;11.90;8.50;;;;;;;;;;5106686;28;20247;-82
2021/09/07 06:41:45;;;;;;;8.95;7.80;;;;;;;;;;5103022;28;20181;-82
2021/09/07 06:44:11;;;;;;;8.13;7.32;;;;;;;;;;5105384;28;20182;-81
2021/09/07 06:46:37;;;;;;;8.30;7.50;;;;;;;;;;5097229;28;20175;-81
2021/09/07 06:49:03;;;;;;;10.13;8.10;;;;;;;;;;5112743;28;20195;-82
2021/09/07 06:51:33;;;;;;;10.05;7.72;;;;;;;;;;5117072;28;20432;-81
2021/09/07 06:53:59;;;;;;;8.15;7.13;;;;;;;;;;5116884;28;20234;-85
2021/09/07 06:56:25;;;;;;;9.65;8.65;;;;;;;;;;5094559;28;20201;-84
2021/09/07 06:58:51;;;;;;;8.82;7.53;;;;;;;;;;5120576;28;20208;-82
2021/09/07 07:01:17;;;;;;;11.00;8.10;;;;;;;;;;5092494;28;20187;-85
2021/09/07 07:03:43;;;;;;;9.40;7.90;;;;;;;;;;5095226;28;20195;-82
2021/09/07 07:06:09;;;;;;;7.77;6.97;;;;;;;;;;5098426;28;20597;-85
2021/09/07 07:08:35;;;;;;;10.70;8.47;;;;;;;;;;5119538;28;20436;-83
2021/09/07 07:11:01;;;;;;;11.60;8.53;;;;;;;;;;5112874;28;20439;-84
2021/09/07 07:13:27;;;;;;;10.93;8.23;;;;;;;;;;5100308;27;20860;-84
2021/09/07 07:15:53;;;;;;;9.20;7.70;;;;;;;;;;5096530;28;20248;-85
2021/09/07 07:18:19;;;;;;;10.43;8.13;;;;;;;;;;5113882;27;20449;-81
2021/09/07 07:20:45;;;;;;;14.63;9.52;;;;;;;;;;5103300;28;20182;-82
2021/09/07 07:23:11;;;;;;;11.70;9.27;;;;;;;;;;5117360;27;20184;-81
2021/09/07 07:25:37;;;;;;;11.85;10.23;;;;;;;;;;5118136;28;20463;-81
2021/09/07 07:28:03;;;;;;;11.02;9.57;;;;;;;;;;5094448;28;20205;-81
2021/09/07 07:30:31;;;;;;;12.18;9.60;;;;;;;;;;5091920;28;20179;-81
2021/09/07 07:32:57;;;;;;;12.88;9.63;;;;;;;;;;5103869;28;20247;-81
2021/09/07 07:35:23;;;;;;;13.57;10.33;;;;;;;;;;5092321;28;20251;-81
2021/09/07 07:37:49;;;;;;;12.50;10.25;;;;;;;;;;5091848;28;20445;-81
2021/09/07 07:40:15;;;;;;;11.80;8.37;;;;;;;;;;5095930;28;20210;-81
2021/09/07 07:42:41;;;;;;;16.00;10.35;;;;;;;;;;5100549;28;20729;-81
2021/09/07 07:45:08;;;;;;;11.83;10.20;;;;;;;;;;5093710;28;20176;-82
2021/09/07 07:47:34;;;;;;;10.98;9.88;;;;;;;;;;5094883;28;20445;-81
2021/09/07 07:50:00;;;;;;;13.27;9.32;;;;;;;;;;5099814;28;20180;-81
2021/09/07 07:52:25;;;;;;;11.03;9.27;;;;;;;;;;5116566;28;20212;-81
2021/09/07 07:54:51;;;;;;;15.20;11.17;;;;;;;;;;5088375;28;20457;-81
2021/09/07 07:57:18;;;;;;;10.33;9.00;;;;;;;;;;5112169;28;20461;-81
2021/09/07 07:59:44;;;;;;;14.63;10.10;;;;;;;;;;5096996;28;20422;-81
2021/09/07 08:02:10;;;;;;;14.10;10.35;;;;;;;;;;5097818;28;20189;-85
2021/09/07 08:04:36;;;;;;;11.70;9.03;;;;;;;;;;5118696;27;20196;-84
2021/09/07 08:07:02;;;;;;;11.82;9.57;;;;;;;;;;5103142;28;20454;-84
2021/09/07 08:09:31;;;;;;;12.18;9.15;;;;;;;;;;5104072;28;20182;-84
2021/09/07 08:11:57;;;;;;;10.73;9.57;;;;;;;;;;5100573;28;20207;-85
2021/09/07 08:14:23;;;;;;;13.30;11.00;;;;;;;;;;5107975;28;20188;-83
2021/09/07 08:16:49;;;;;;;14.47;9.10;;;;;;;;;;5109589;28;20184;-84
2021/09/07 08:19:15;;;;;;;10.93;9.32;;;;;;;;;;5096420;28;20470;-85
2021/09/07 08:21:41;;;;;;;10.55;9.45;;;;;;;;;;5106862;28;20181;-86
2021/09/07 08:24:07;;;;;;;11.32;9.63;;;;;;;;;;5122094;28;20244;-84
2021/09/07 08:26:33;;;;;;;13.63;9.60;;;;;;;;;;5118937;28;20208;-86
2021/09/07 08:28:59;;;;;;;11.15;9.27;;;;;;;;;;5102438;28;20465;-85
2021/09/07 08:31:25;;;;;;;10.20;9.10;;;;;;;;;;5106976;28;20217;-85
2021/09/07 08:33:51;;;;;;;10.82;9.68;;;;;;;;;;5120027;28;20464;-86
2021/09/07 08:36:17;;;;;;;10.30;9.20;;;;;;;;;;5119100;28;20213;-86
2021/09/07 08:38:43;;;;;;;12.60;9.37;;;;;;;;;;5096506;28;20799;-87
2021/09/07 08:41:09;;;;;;;11.50;8.97;;;;;;;;;;5106961;28;20504;-87
2021/09/07 08:43:36;;;;;;;12.10;9.30;;;;;;;;;;5122205;28;20451;-86
2021/09/07 08:46:02;;;;;;;9.65;8.50;;;;;;;;;;5092659;28;20187;-86
2021/09/07 08:48:28;;;;;;;10.35;9.23;;;;;;;;;;5092295;28;20615;-85
2021/09/07 08:50:55;;;;;;;19.70;11.40;;;;;;;;;;5102182;28;20204;-85
2021/09/07 08:53:21;;;;;;;38.72;13.02;;;;;;;;;;5089145;28;20475;-85
2021/09/07 08:55:47;;;;;;;11.52;9.68;;;;;;;;;;5108351;28;20239;-83
2021/09/07 08:58:13;;;;;;;14.53;9.50;;;;;;;;;;5103918;28;20515;-83
2021/09/07 09:00:39;;;;;;;11.67;9.00;;;;;;;;;;5106645;28;20391;-85
2021/09/07 09:03:10;;;;;;;14.73;10.20;;;;;;;;;;5101049;28;20395;-83
2021/09/07 09:05:36;;;;;;;10.23;9.07;;;;;;;;;;5102171;28;20978;-84
2021/09/07 09:08:02;;;;;;;9.80;7.83;;;;;;;;;;5107246;28;20411;-84
2021/09/07 09:10:28;;;;;;;10.90;9.07;;;;;;;;;;5106915;28;20432;-84
2021/09/07 09:13:06;;;;;;;12.27;9.60;;;;;;;;;;5116779;28;20467;-85
2021/09/07 09:15:32;;;;;;;9.90;7.83;;;;;;;;;;5100623;28;20444;-84
2021/09/07 09:18:05;;;;;;;13.53;8.37;;;;;;;;;;5100730;28;20395;-83
2021/09/07 09:20:31;;;;;;;11.07;8.90;;;;;;;;;;5101542;28;20411;-84
2021/09/07 09:22:58;;;;;;;11.80;9.03;;;;;;;;;;5106877;28;20894;-85
2021/09/07 09:25:28;;;;;;;15.30;9.47;;;;;;;;;;5106646;28;20870;-83
2021/09/07 09:28:11;;;;;;;13.90;9.30;;;;;;;;;;5117907;28;20434;-85
2021/09/07 09:30:40;;;;;;;10.43;8.73;;;;;;;;;;5098041;28;20408;-83
2021/09/07 09:33:06;;;;;;;12.13;8.43;;;;;;;;;;5116377;28;20461;-84
2021/09/07 09:35:42;;;;;;;8.17;7.37;;;;;;;;;;5116906;28;20440;-83
2021/09/07 09:38:08;;;;;;;13.80;8.27;;;;;;;;;;5107110;28;20440;-85
2021/09/07 09:40:34;;;;;;;10.77;7.67;;;;;;;;;;5120600;28;20407;-84
2021/09/07 09:43:20;;;;;;;11.33;8.90;;;;;;;;;;5117695;28;20422;-84
2021/09/07 09:45:46;;;;;;;14.50;8.40;;;;;;;;;;5092974;28;20495;-85
2021/09/07 09:48:22;;;;;;;15.57;8.70;;;;;;;;;;5125980;28;20413;-85
2021/09/07 09:50:51;;;;;;;9.17;7.40;;;;;;;;;;5097112;28;20975;-86
2021/09/07 09:53:18;;;;;;;10.33;8.23;;;;;;;;;;5105933;28;20458;-84
2021/09/07 09:55:45;;;;;;;9.50;7.23;;;;;;;;;;5102410;28;20471;-84
2021/09/07 09:58:11;;;;;;;9.20;7.17;;;;;;;;;;5105086;28;20501;-83
2021/09/07 10:00:37;;;;;;;9.10;6.60;;;;;;;;;;5100625;28;20424;-81
2021/09/07 10:03:09;;;;;;;7.20;6.13;;;;;;;;;;5099699;28;20427;-84
2021/09/07 10:05:35;;;;;;;11.70;7.30;;;;;;;;;;5101489;28;20443;-84
2021/09/07 10:08:02;;;;;;;10.20;6.77;;;;;;;;;;5119140;28;20414;-84
2021/09/07 10:10:28;;;;;;;10.03;6.60;;;;;;;;;;5092559;28;20416;-84
2021/09/07 10:12:58;;;;;;;6.60;5.73;;;;;;;;;;5104661;28;20440;-84
2021/09/07 10:17:53;;;;;;;6.33;5.50;;;;;;;;;;5118966;28;20416;-83
2021/09/07 10:20:38;;;;;;;7.60;6.50;;;;;;;;;;5100463;28;20480;-84
2021/09/07 10:23:28;;;;;;;6.00;4.47;;;;;;;;;;5113937;28;20417;-82
2021/09/07 10:26:03;;;;;;;5.93;5.33;;;;;;;;;;5098859;28;20425;-82
2021/09/07 10:28:36;;;;;;;6.43;5.53;;;;;;;;;;5101015;28;20434;-81
2021/09/07 10:31:07;;;;;;;6.60;4.60;;;;;;;;;;5104016;28;20440;-82
2021/09/07 10:33:34;;;;;;;5.77;5.27;;;;;;;;;;5120459;28;20436;-81
2021/09/07 10:36:06;;;;;;;6.20;5.07;;;;;;;;;;5099308;28;20471;-82
2021/09/07 10:38:36;;;;;;;5.73;4.60;;;;;;;;;;5119033;28;20437;-84
2021/09/07 10:41:02;;;;;;;8.17;5.33;;;;;;;;;;5105088;28;20431;-81
2021/09/07 10:43:47;;;;;;;8.40;4.90;;;;;;;;;;5100372;28;20468;-84
2021/09/07 10:46:13;;;;;;;5.10;4.63;;;;;;;;;;5119764;28;20445;-84
2021/09/07 10:48:39;;;;;;;6.40;5.17;;;;;;;;;;5120571;28;20465;-83
2021/09/07 10:51:05;;;;;;;6.10;4.87;;;;;;;;;;5097630;28;20408;-82
2021/09/07 10:53:31;;;;;;;7.20;5.87;;;;;;;;;;5119698;28;20494;-83
2021/09/07 10:56:16;;;;;;;5.50;5.00;;;;;;;;;;5118683;28;20432;-84
2021/09/07 10:58:42;;;;;;;5.50;4.73;;;;;;;;;;5111097;28;20441;-82
2021/09/07 11:01:27;;;;;;;6.03;5.07;;;;;;;;;;5102044;28;20481;-84
2021/09/07 11:04:26;;;;;;;6.60;4.60;;;;;;;;;;5097852;28;20442;-84
2021/09/07 11:06:52;;;;;;;6.83;4.40;;;;;;;;;;4995917;28;20519;-84
2021/09/07 11:09:36;;;;;;;5.73;5.20;;;;;;;;;;5007458;28;20443;-84
2021/09/07 11:12:21;;;;;;;5.50;5.00;;;;;;;;;;5020961;28;20432;-84
2021/09/07 11:15:06;;;;;;;5.00;4.50;;;;;;;;;;4996316;28;20404;-83
2021/09/07 11:17:32;;;;;;;6.43;4.40;;;;;;;;;;5002901;28;20580;-82
2021/09/07 11:20:00;;;;;;;5.67;5.17;;;;;;;;;;5021024;28;20465;-81
2021/09/07 11:22:27;;;;;;;7.13;5.20;;;;;;;;;;4993427;28;20468;-81
2021/09/07 11:25:10;;;;;;;5.10;4.60;;;;;;;;;;5003579;28;20652;-82
2021/09/07 11:27:51;;;;;;;5.20;4.70;;;;;;;;;;5019149;28;20415;-80
2021/09/07 11:30:26;;;;;;;5.43;4.97;;;;;;;;;;5000021;28;20453;-80
2021/09/07 11:32:56;;;;;;;6.30;5.20;;;;;;;;;;5000418;28;20455;-81
2021/09/07 11:35:22;;;;;;;5.30;4.80;;;;;;;;;;5018991;28;20441;-82
2021/09/07 11:37:48;;;;;;;6.20;5.63;;;;;;;;;;4999656;28;20453;-82
2021/09/07 11:40:17;;;;;;;5.90;5.20;;;;;;;;;;5014323;28;20555;-84
2021/09/07 11:42:44;;;;;;;6.03;4.90;;;;;;;;;;5065088;28;20435;-88
2021/09/07 11:45:17;;;;;;;5.40;4.90;;;;;;;;;;5100571;28;20777;-87
2021/09/07 11:47:44;;;;;;;5.40;4.70;;;;;;;;;;5095060;28;20777;-85
2021/09/07 11:50:14;;;;;;;6.30;5.67;;;;;;;;;;5112558;28;20458;-83
2021/09/07 11:52:40;;;;;;;6.07;4.70;;;;;;;;;;5096084;28;20466;-83
2021/09/07 11:55:29;;;;;;;5.13;4.40;;;;;;;;;;5094121;28;20513;-81
2021/09/07 11:57:55;;;;;;;5.33;4.87;;;;;;;;;;5118637;28;20486;-81
2021/09/07 12:00:21;;;;;;;5.53;5.00;;;;;;;;;;5096880;28;20503;-81
2021/09/07 12:02:47;;;;;;;5.67;4.43;;;;;;;;;;5101296;28;20433;-82
2021/09/07 12:05:13;;;;;;;6.10;5.60;;;;;;;;;;5097654;28;20518;-81
2021/09/07 12:07:53;;;;;;;5.40;4.63;;;;;;;;;;5106248;28;20430;-81
2021/09/07 12:10:19;;;;;;;5.83;5.33;;;;;;;;;;5107572;28;20444;-81
2021/09/07 12:12:45;;;;;;;6.07;5.23;;;;;;;;;;5100056;28;20498;-81
2021/09/07 12:15:17;;;;;;;4.43;3.97;;;;;;;;;;5095675;28;20421;-83
2021/09/07 12:17:45;;;;;;;5.33;4.83;;;;;;;;;;5103665;28;20447;-81
2021/09/07 12:20:14;;;;;;;7.03;5.90;;;;;;;;;;5098077;28;20425;-81
2021/09/07 12:22:40;;;;;;;6.53;5.47;;;;;;;;;;5101814;28;20441;-81
2021/09/07 12:25:12;;;;;;;6.10;5.50;;;;;;;;;;5118306;28;20446;-83
2021/09/07 12:27:41;;;;;;;5.90;5.30;;;;;;;;;;5099832;28;20409;-83
2021/09/07 12:30:28;;;;;;;6.00;5.40;;;;;;;;;;5116753;28;20401;-83
2021/09/07 12:32:54;;;;;;;5.63;5.17;;;;;;;;;;5095698;28;20728;-84
2021/09/07 12:35:35;;;;;;;6.43;5.93;;;;;;;;;;5100344;28;20433;-87
2021/09/07 12:38:02;;;;;;;6.07;5.20;;;;;;;;;;5113029;28;20464;-85
2021/09/07 12:40:29;;;;;;;5.53;5.10;;;;;;;;;;5117321;28;21042;-84
2021/09/07 12:42:55;;;;;;;5.50;4.70;;;;;;;;;;5098739;28;20440;-86
2021/09/07 12:45:22;;;;;;;9.23;5.90;;;;;;;;;;5093998;28;20436;-83
2021/09/07 12:47:48;;;;;;;5.87;5.47;;;;;;;;;;5114879;28;20910;-84
2021/09/07 12:50:14;;;;;;;6.00;5.30;;;;;;;;;;5115596;28;20915;-87
2021/09/07 12:52:40;;;;;;;6.67;6.13;;;;;;;;;;5100418;28;20494;-88
2021/09/07 12:55:06;;;;;;;5.10;4.80;;;;;;;;;;5106957;28;20444;-87
2021/09/07 12:57:32;;;;;;;5.40;5.00;;;;;;;;;;5098112;28;20476;-87
2021/09/07 12:59:58;;;;;;;6.20;5.73;;;;;;;;;;5097351;28;20444;-87
2021/09/07 13:02:24;;;;;;;6.00;5.50;;;;;;;;;;5104517;28;20424;-90
2021/09/07 13:04:50;;;;;;;5.93;5.57;;;;;;;;;;5103894;28;20429;-88
2021/09/07 13:07:17;;;;;;;6.80;6.40;;;;;;;;;;5106774;28;20430;-87
2021/09/07 13:09:43;;;;;;;6.33;5.97;;;;;;;;;;5100753;28;21567;-86
2021/09/07 13:12:09;;;;;;;7.07;6.67;;;;;;;;;;5121050;28;20597;-85
2021/09/07 13:14:35;;;;;;;7.43;7.03;;;;;;;;;;5099418;28;20440;-85
2021/09/07 13:17:01;;;;;;;7.13;6.73;;;;;;;;;;5121216;27;20573;-87
2021/09/07 13:19:27;;;;;;;8.30;7.80;;;;;;;;;;5103874;28;20183;-85
2021/09/07 13:21:53;;;;;;;7.57;7.23;;;;;;;;;;5093112;28;20429;-86
2021/09/07 13:24:19;;;;;;;7.40;7.00;;;;;;;;;;5096430;28;20425;-85
2021/09/07 13:26:45;;;;;;;5.80;5.50;;;;;;;;;;5098373;28;20424;-91
2021/09/07 13:29:11;;;;;;;5.57;5.07;;;;;;;;;;5106736;28;20701;-86
2021/09/07 13:31:36;;;;;;;5.80;5.40;;;;;;;;;;5118049;28;20547;-84
2021/09/07 13:34:02;;;;;;;5.73;5.33;;;;;;;;;;5100774;28;20452;-86
2021/09/07 13:36:28;;;;;;;5.13;4.60;;;;;;;;;;5122944;28;20421;-85
2021/09/07 13:38:55;;;;;;;5.10;4.70;;;;;;;;;;5103445;28;20458;-85
2021/09/07 13:41:21;;;;;;;5.60;5.20;;;;;;;;;;5119191;28;20428;-85
2021/09/07 13:43:48;;;;;;;5.20;4.90;;;;;;;;;;5103804;28;20944;-85
2021/09/07 13:46:14;;;;;;;5.47;5.07;;;;;;;;;;5103358;28;20470;-88
2021/09/07 13:48:40;;;;;;;4.30;4.00;;;;;;;;;;5107043;28;20455;-86
2021/09/07 13:51:06;;;;;;;5.47;4.93;;;;;;;;;;5119118;28;20447;-84
2021/09/07 13:53:34;;;;;;;5.80;5.13;;;;;;;;;;5119180;28;20557;-85
2021/09/07 13:56:00;;;;;;;5.30;4.90;;;;;;;;;;5118714;28;20448;-86
2021/09/07 13:58:26;;;;;;;5.90;5.50;;;;;;;;;;5103233;28;20426;-86
2021/09/07 14:00:52;;;;;;;5.40;5.00;;;;;;;;;;5116915;28;20436;-85
2021/09/07 14:03:18;;;;;;;4.60;4.20;;;;;;;;;;5101368;28;20432;-84
2021/09/07 14:05:44;;;;;;;5.20;4.80;;;;;;;;;;5101388;28;20432;-85
2021/09/07 14:08:10;;;;;;;5.17;4.67;;;;;;;;;;5121137;28;20464;-84
2021/09/07 14:10:36;;;;;;;5.07;4.67;;;;;;;;;;5105822;28;20821;-90
2021/09/07 14:13:03;;;;;;;6.33;4.90;;;;;;;;;;5103092;28;20851;-84
2021/09/07 14:15:29;;;;;;;4.53;4.23;;;;;;;;;;5118612;28;20437;-85
2021/09/07 14:17:56;;;;;;;4.60;4.20;;;;;;;;;;5096368;28;20451;-83
2021/09/07 14:20:22;;;;;;;4.80;4.00;;;;;;;;;;5118366;28;20432;-83
2021/09/07 14:22:48;;;;;;;5.40;4.90;;;;;;;;;;5118589;28;20504;-84
2021/09/07 14:25:14;;;;;;;5.57;4.90;;;;;;;;;;5106433;28;20539;-84
2021/09/07 14:27:41;;;;;;;4.33;3.93;;;;;;;;;;5118267;28;20486;-84
2021/09/07 14:30:07;;;;;;;4.93;4.43;;;;;;;;;;5096835;28;20535;-84
2021/09/07 14:32:33;;;;;;;4.00;3.60;;;;;;;;;;5117732;28;20473;-87
2021/09/07 14:34:59;;;;;;;3.50;3.00;;;;;;;;;;5101233;28;20448;-85
2021/09/07 14:37:26;;;;;;;4.90;4.50;;;;;;;;;;5118598;28;20439;-84
2021/09/07 14:39:52;;;;;;;4.93;4.53;;;;;;;;;;5099993;28;20449;-84
2021/09/07 14:42:18;;;;;;;4.80;4.40;;;;;;;;;;5096916;28;20515;-84